createdAt,value
2022-09-20T00:00:41.771Z,1.20
2022-09-20T00:03:09.457Z,1.27
2022-09-20T00:05:37.860Z,1.10
2022-09-20T00:08:07.979Z,1.20
2022-09-20T00:10:39.301Z,1.40
2022-09-20T00:13:07.991Z,1.57
2022-09-20T00:15:35.522Z,1.10
2022-09-20T00:18:02.842Z,1.63
2022-09-20T00:20:30.178Z,1.17
2022-09-20T00:22:57.849Z,1.23
2022-09-20T00:25:26.551Z,1.43
2022-09-20T00:27:53.965Z,1.15
2022-09-20T00:30:21.546Z,1.33
2022-09-20T00:32:48.906Z,1.05
2022-09-20T00:35:15.671Z,1.30
2022-09-20T00:37:43.677Z,0.90
2022-09-20T00:40:13.431Z,0.90
2022-09-20T00:42:42.250Z,1.35
2022-09-20T00:45:12.719Z,0.77
2022-09-20T00:47:41.789Z,0.93
2022-09-20T00:50:15.080Z,1.30
2022-09-20T00:52:44.823Z,0.95
2022-09-20T00:55:12.615Z,0.93
2022-09-20T00:57:40.230Z,1.17
2022-09-20T01:00:10.730Z,0.90
2022-09-20T01:02:40.571Z,0.93
2022-09-20T01:05:08.727Z,0.90
2022-09-20T01:07:36.571Z,0.80
2022-09-20T01:10:04.104Z,1.00
2022-09-20T01:12:34.526Z,1.20
2022-09-20T01:15:03.551Z,1.13
2022-09-20T01:17:33.737Z,1.20
2022-09-20T01:20:08.892Z,1.20
2022-09-20T01:22:42.485Z,1.27
2022-09-20T01:25:11.942Z,1.20
2022-09-20T01:27:44.773Z,1.40
2022-09-20T01:30:14.401Z,1.30
2022-09-20T01:32:53.183Z,1.38
2022-09-20T01:35:21.270Z,1.00
2022-09-20T01:37:54.451Z,1.27
2022-09-20T01:40:25.186Z,1.10
2022-09-20T01:42:59.378Z,1.30
2022-09-20T01:45:29.131Z,1.35
2022-09-20T01:48:01.519Z,1.88
2022-09-20T01:50:34.323Z,1.67
2022-09-20T01:53:25.511Z,1.47
2022-09-20T01:56:07.139Z,1.20
2022-09-20T01:59:07.301Z,1.38
2022-09-20T02:02:02.863Z,1.13
2022-09-20T02:04:57.926Z,1.40
2022-09-20T02:07:39.197Z,1.13
2022-09-20T02:10:28.539Z,1.48
2022-09-20T02:12:57.243Z,1.52
2022-09-20T02:15:36.343Z,1.60
2022-09-20T02:18:09.515Z,1.05
2022-09-20T02:20:41.275Z,1.10
2022-09-20T02:23:21.783Z,1.30
2022-09-20T02:25:59.746Z,1.40
2022-09-20T02:28:31.998Z,1.20
2022-09-20T02:31:08.515Z,0.80
2022-09-20T02:33:53.653Z,1.07
2022-09-20T02:36:27.261Z,1.00
2022-09-20T02:39:00.187Z,1.10
2022-09-20T02:41:47.848Z,1.15
2022-09-20T02:44:19.428Z,1.40
2022-09-20T02:46:51.941Z,1.23
2022-09-20T02:49:24.598Z,1.27
2022-09-20T02:51:53.626Z,1.08
2022-09-20T02:54:29.058Z,1.35
2022-09-20T02:56:59.403Z,1.20
2022-09-20T02:59:32.126Z,1.10
2022-09-20T03:02:07.278Z,1.40
2022-09-20T03:04:39.415Z,1.17
2022-09-20T03:07:11.178Z,1.02
2022-09-20T03:09:42.361Z,1.13
2022-09-20T03:12:15.596Z,0.93
2022-09-20T03:14:46.480Z,0.90
2022-09-20T03:17:19.451Z,0.93
2022-09-20T03:19:56.752Z,0.95
2022-09-20T03:22:29.793Z,1.10
2022-09-20T03:25:04.863Z,0.90
2022-09-20T03:27:35.836Z,1.20
2022-09-20T03:30:16.041Z,0.88
2022-09-20T03:32:53.800Z,1.02
2022-09-20T03:35:29.298Z,1.27
2022-09-20T03:38:06.343Z,1.17
2022-09-20T03:40:48.717Z,1.13
2022-09-20T03:43:21.444Z,1.27
2022-09-20T03:45:58.139Z,1.08
2022-09-20T03:48:36.959Z,1.20
2022-09-20T03:51:14.012Z,1.63
2022-09-20T03:53:48.557Z,1.08
2022-09-20T03:56:25.044Z,1.25
2022-09-20T03:59:01.379Z,1.35
2022-09-20T04:01:35.520Z,1.15
2022-09-20T04:04:10.117Z,1.10
2022-09-20T04:06:52.231Z,1.10
2022-09-20T04:09:27.335Z,1.25
2022-09-20T04:11:59.581Z,0.90
2022-09-20T04:14:30.880Z,1.20
2022-09-20T04:17:01.772Z,1.10
2022-09-20T04:19:33.250Z,0.80
2022-09-20T04:22:02.024Z,1.00
2022-09-20T04:24:34.259Z,1.02
2022-09-20T04:27:03.919Z,0.93
2022-09-20T04:29:35.390Z,1.33
2022-09-20T04:32:05.498Z,0.80
2022-09-20T04:34:50.299Z,0.88
2022-09-20T04:37:23.771Z,0.98
2022-09-20T04:39:58.099Z,0.98
2022-09-20T04:42:37.714Z,0.70
2022-09-20T04:45:23.054Z,0.73
2022-09-20T04:47:59.752Z,0.98
2022-09-20T04:50:46.795Z,1.25
2022-09-20T04:53:24.085Z,1.05
2022-09-20T04:55:55.582Z,1.10
2022-09-20T04:58:46.963Z,1.15
2022-09-20T05:01:32.309Z,1.02
2022-09-20T05:04:15.179Z,0.93
2022-09-20T05:06:56.030Z,1.02
2022-09-20T05:09:41.098Z,1.00
2022-09-20T05:12:21.387Z,1.05
2022-09-20T05:15:03.611Z,1.10
2022-09-20T05:17:37.482Z,0.98
2022-09-20T05:20:15.032Z,1.20
2022-09-20T05:22:57.527Z,0.80
2022-09-20T05:25:34.188Z,0.70
2022-09-20T05:28:04.444Z,0.90
2022-09-20T05:30:35.357Z,0.80
2022-09-20T05:33:10.797Z,1.10
2022-09-20T05:35:41.787Z,1.00
2022-09-20T05:38:14.791Z,1.30
2022-09-20T05:40:50.914Z,0.98
2022-09-20T05:43:26.924Z,1.00
2022-09-20T05:46:02.996Z,1.20
2022-09-20T05:48:37.585Z,1.00
2022-09-20T05:51:10.741Z,0.80
2022-09-20T05:53:51.730Z,0.63
2022-09-20T05:56:22.451Z,0.93
2022-09-20T05:59:02.387Z,0.75
2022-09-20T06:01:32.865Z,0.97
2022-09-20T06:04:05.659Z,1.13
2022-09-20T06:06:40.712Z,1.08
2022-09-20T06:09:16.940Z,0.60
2022-09-20T06:11:56.177Z,0.85
2022-09-20T06:14:29.122Z,0.90
2022-09-20T06:17:00.216Z,1.00
2022-09-20T06:19:33.125Z,0.75
2022-09-20T06:22:03.940Z,1.30
2022-09-20T06:24:39.788Z,0.85
2022-09-20T06:27:09.606Z,0.97
2022-09-20T06:29:40.069Z,1.23
2022-09-20T06:32:08.142Z,1.40
2022-09-20T06:34:36.107Z,1.08
2022-09-20T06:37:26.583Z,0.90
2022-09-20T06:40:16.190Z,1.00
2022-09-20T06:42:44.481Z,1.20
2022-09-20T06:45:11.903Z,1.20
2022-09-20T06:47:40.306Z,1.02
2022-09-20T06:50:08.039Z,0.88
2022-09-20T06:52:35.518Z,1.10
2022-09-20T06:55:08.767Z,1.30
2022-09-20T06:57:37.741Z,1.00
2022-09-20T07:00:06.243Z,1.48
2022-09-20T07:02:33.691Z,1.17
2022-09-20T07:05:01.083Z,1.00
2022-09-20T07:07:28.432Z,1.30
2022-09-20T07:09:55.764Z,1.95
2022-09-20T07:12:25.162Z,1.17
2022-09-20T07:14:52.581Z,1.23
2022-09-20T07:17:20.017Z,1.00
2022-09-20T07:19:47.358Z,1.20
2022-09-20T07:22:14.718Z,1.25
2022-09-20T07:24:42.073Z,0.90
2022-09-20T07:27:11.547Z,1.10
2022-09-20T07:29:41.065Z,1.00
2022-09-20T07:32:08.416Z,1.00
2022-09-20T07:34:35.790Z,1.20
2022-09-20T07:37:03.213Z,0.70
2022-09-20T07:39:30.560Z,0.93
2022-09-20T07:41:57.874Z,0.80
2022-09-20T07:44:25.357Z,0.90
2022-09-20T07:46:54.667Z,0.80
2022-09-20T07:49:22.525Z,0.57
2022-09-20T07:51:49.978Z,0.60
2022-09-20T07:54:17.611Z,0.40
2022-09-20T07:56:45.258Z,0.50
2022-09-20T07:59:13.072Z,0.40
2022-09-20T08:01:40.616Z,0.50
2022-09-20T08:04:09.610Z,0.70
2022-09-20T08:06:37.825Z,0.50
2022-09-20T08:09:10.208Z,0.60
2022-09-20T08:11:39.446Z,0.40
2022-09-20T08:14:08.830Z,0.40
2022-09-20T08:16:39.522Z,0.70
2022-09-20T08:19:06.964Z,0.30
2022-09-20T08:21:37.892Z,0.45
2022-09-20T08:24:05.316Z,0.50
2022-09-20T08:26:34.998Z,0.30
2022-09-20T08:29:02.335Z,0.55
2022-09-20T08:31:31.317Z,0.40
2022-09-20T08:33:59.047Z,0.40
2022-09-20T08:36:29.894Z,0.40
2022-09-20T08:41:49.529Z,0.88
2022-09-20T08:44:19.331Z,0.70
2022-09-20T08:46:48.446Z,0.90
2022-09-20T08:49:19.942Z,0.40
2022-09-20T08:51:50.535Z,0.60
2022-09-20T08:54:19.367Z,0.52
2022-09-20T08:56:48.299Z,0.60
2022-09-20T08:59:17.328Z,0.30
2022-09-20T09:01:44.670Z,0.65
2022-09-20T09:04:13.832Z,0.80
2022-09-20T09:06:41.351Z,0.40
2022-09-20T09:09:08.995Z,0.37
2022-09-20T09:11:45.607Z,0.57
2022-09-20T09:14:28.514Z,0.73
2022-09-20T09:16:55.902Z,0.30
2022-09-20T09:19:33.202Z,0.50
2022-09-20T09:22:02.591Z,0.40
2022-09-20T09:24:31.374Z,0.50
2022-09-20T09:27:09.534Z,0.60
2022-09-20T09:29:36.955Z,0.60
2022-09-20T09:32:20.175Z,0.70
2022-09-20T09:34:47.540Z,0.70
2022-09-20T09:37:28.320Z,0.73
2022-09-20T09:40:11.663Z,0.60
2022-09-20T09:42:48.881Z,0.40
2022-09-20T09:45:27.271Z,0.70
2022-09-20T09:47:54.798Z,0.47
2022-09-20T09:50:26.768Z,0.30
2022-09-20T09:53:01.729Z,0.30
2022-09-20T09:55:34.033Z,0.30
2022-09-20T09:58:05.724Z,0.52
2022-09-20T10:00:35.723Z,0.63
2022-09-20T10:03:17.985Z,0.55
2022-09-20T10:05:49.160Z,1.00
2022-09-20T10:08:20.940Z,0.77
2022-09-20T10:10:58.003Z,0.40
2022-09-20T10:13:29.399Z,0.30
2022-09-20T10:16:00.344Z,0.65
2022-09-20T10:18:34.152Z,0.32
2022-09-20T10:21:07.739Z,0.98
2022-09-20T10:24:03.579Z,0.38
2022-09-20T10:26:49.519Z,0.30
2022-09-20T10:29:26.129Z,0.30
2022-09-20T10:31:57.222Z,0.30
2022-09-20T10:34:43.896Z,0.40
2022-09-20T10:37:14.399Z,0.40
2022-09-20T10:39:41.965Z,0.70
2022-09-20T10:42:41.427Z,0.77
2022-09-20T10:45:28.999Z,0.98
2022-09-20T10:48:04.815Z,0.93
2022-09-20T10:50:38.227Z,0.55
2022-09-20T10:53:11.526Z,0.60
2022-09-20T10:55:40.846Z,0.90
2022-09-20T10:58:32.176Z,1.23
2022-09-20T11:01:04.028Z,0.85
2022-09-20T11:03:43.652Z,0.80
2022-09-20T11:06:15.509Z,0.67
2022-09-20T11:08:43.758Z,0.60
2022-09-20T11:11:12.355Z,0.60
2022-09-20T11:13:42.846Z,0.63
2022-09-20T11:16:15.062Z,0.77
2022-09-20T11:18:44.930Z,0.50
2022-09-20T11:21:18.758Z,0.80
2022-09-20T11:23:50.954Z,1.00
2022-09-20T11:26:20.807Z,1.05
2022-09-20T11:28:49.645Z,0.90
2022-09-20T11:31:23.450Z,0.80
2022-09-20T11:33:53.366Z,0.70
2022-09-20T11:36:24.531Z,0.70
2022-09-20T11:38:54.057Z,0.70
2022-09-20T11:41:25.706Z,0.68
2022-09-20T11:43:53.634Z,0.70
2022-09-20T11:46:24.350Z,0.70
2022-09-20T11:48:53.597Z,0.80
2022-09-20T11:51:27.695Z,0.70
2022-09-20T11:54:06.296Z,0.50
2022-09-20T11:56:34.597Z,0.63
2022-09-20T11:59:02.918Z,0.60
2022-09-20T12:01:33.034Z,0.57
2022-09-20T12:04:21.007Z,0.38
2022-09-20T12:06:57.537Z,0.60
2022-09-20T12:09:26.694Z,0.40
2022-09-20T12:11:54.227Z,0.40
2022-09-20T12:14:24.259Z,0.68
2022-09-20T12:16:53.436Z,0.70
2022-09-20T12:19:36.444Z,0.77
2022-09-20T12:22:17.441Z,0.60
2022-09-20T12:24:45.716Z,0.55
2022-09-20T12:27:22.658Z,0.60
2022-09-20T12:30:14.927Z,0.73
2022-09-20T12:32:48.363Z,0.50
2022-09-20T12:35:34.922Z,0.90
2022-09-20T12:38:17.696Z,0.80
2022-09-20T12:40:58.687Z,0.52
2022-09-20T12:43:27.357Z,0.52
2022-09-20T12:45:57.903Z,0.60
2022-09-20T12:48:29.164Z,0.60
2022-09-20T12:51:21.395Z,0.60
2022-09-20T12:54:06.639Z,0.70
2022-09-20T12:56:36.360Z,0.70
2022-09-20T12:59:06.306Z,0.57
2022-09-20T13:01:35.546Z,0.70
2022-09-20T13:04:21.471Z,0.50
2022-09-20T13:06:50.719Z,0.38
2022-09-20T13:09:19.095Z,0.70
2022-09-20T13:11:48.736Z,0.40
2022-09-20T13:14:19.496Z,0.50
2022-09-20T13:16:51.983Z,0.70
2022-09-20T13:19:20.325Z,0.32
2022-09-20T13:21:54.103Z,0.50
2022-09-20T13:24:21.850Z,0.50
2022-09-20T13:26:50.028Z,0.50
2022-09-20T13:29:23.894Z,0.28
2022-09-20T13:31:51.321Z,0.30
2022-09-20T13:34:20.695Z,0.40
2022-09-20T13:36:51.884Z,0.50
2022-09-20T13:39:34.985Z,0.50
2022-09-20T13:42:03.327Z,0.43
2022-09-20T13:44:33.377Z,0.50
2022-09-20T13:47:01.008Z,0.43
2022-09-20T13:49:31.603Z,0.50
2022-09-20T13:51:58.938Z,0.30
2022-09-20T13:54:29.789Z,0.40
2022-09-20T13:57:00.044Z,0.40
2022-09-20T13:59:31.073Z,0.38
2022-09-20T14:01:58.552Z,0.50
2022-09-20T14:04:26.616Z,0.70
2022-09-20T14:06:56.218Z,0.32
2022-09-20T14:09:27.071Z,0.57
2022-09-20T14:11:54.615Z,0.30
2022-09-20T14:14:24.099Z,0.50
2022-09-20T14:16:52.630Z,0.60
2022-09-20T14:19:24.683Z,0.50
2022-09-20T14:21:52.213Z,0.50
2022-09-20T14:24:28.744Z,0.40
2022-09-20T14:27:04.098Z,0.52
2022-09-20T14:29:39.918Z,0.43
2022-09-20T14:32:08.634Z,0.43
2022-09-20T14:34:36.523Z,0.50
2022-09-20T14:37:06.451Z,0.60
2022-09-20T14:39:34.287Z,0.70
2022-09-20T14:42:01.646Z,0.60
2022-09-20T14:44:31.899Z,0.60
2022-09-20T14:47:01.041Z,0.82
2022-09-20T14:49:33.377Z,0.60
2022-09-20T14:52:20.069Z,0.60
2022-09-20T14:54:58.620Z,0.60
2022-09-20T14:57:25.952Z,0.60
2022-09-20T14:59:55.945Z,0.50
2022-09-20T15:02:25.487Z,0.70
2022-09-20T15:04:54.592Z,0.57
2022-09-20T15:07:22.087Z,0.60
2022-09-20T15:09:49.495Z,0.65
2022-09-20T15:12:17.876Z,0.90
2022-09-20T15:14:45.347Z,0.82
2022-09-20T15:17:15.714Z,0.63
2022-09-20T15:19:45.467Z,0.70
2022-09-20T15:22:12.838Z,0.70
2022-09-20T15:24:40.147Z,0.68
2022-09-20T15:27:07.866Z,1.00
2022-09-20T15:29:35.234Z,0.65
2022-09-20T15:32:02.830Z,1.07
2022-09-20T15:34:30.950Z,0.80
2022-09-20T15:36:59.651Z,0.70
2022-09-20T15:39:27.840Z,0.73
2022-09-20T15:41:55.190Z,0.60
2022-09-20T15:44:22.520Z,0.40
2022-09-20T15:46:50.872Z,0.90
2022-09-20T15:49:18.358Z,0.70
2022-09-20T15:51:46.291Z,0.70
2022-09-20T15:54:15.270Z,0.63
2022-09-20T15:56:42.966Z,0.70
2022-09-20T15:59:11.302Z,0.70
2022-09-20T16:01:39.650Z,0.80
2022-09-20T16:04:07.946Z,0.70
2022-09-20T16:06:35.379Z,0.70
2022-09-20T16:09:02.742Z,0.80
2022-09-20T16:11:31.486Z,1.10
2022-09-20T16:13:59.852Z,0.68
2022-09-20T16:16:28.064Z,0.70
2022-09-20T16:19:13.007Z,1.00
2022-09-20T16:21:41.080Z,0.90
2022-09-20T16:24:08.909Z,0.90
2022-09-20T16:26:37.833Z,0.75
2022-09-20T16:29:07.282Z,0.70
2022-09-20T16:31:39.321Z,0.80
2022-09-20T16:34:08.368Z,0.90
2022-09-20T16:36:35.715Z,0.80
2022-09-20T16:39:03.081Z,0.70
2022-09-20T16:41:32.378Z,0.90
2022-09-20T16:44:01.060Z,0.93
2022-09-20T16:46:28.494Z,0.90
2022-09-20T16:48:56.728Z,0.90
2022-09-20T16:51:25.895Z,0.80
2022-09-20T16:53:55.551Z,0.85
2022-09-20T16:56:23.597Z,0.95
2022-09-20T16:58:51.324Z,0.90
2022-09-20T17:01:20.197Z,0.80
2022-09-20T17:03:48.024Z,1.55
2022-09-20T17:06:16.242Z,0.80
2022-09-20T17:08:44.803Z,0.80
2022-09-20T17:11:14.026Z,0.87
2022-09-20T17:13:42.551Z,0.80
2022-09-20T17:16:11.495Z,0.88
2022-09-20T17:18:41.853Z,1.17
2022-09-20T17:21:10.428Z,0.90
2022-09-20T17:23:37.841Z,0.90
2022-09-20T17:26:06.388Z,0.88
2022-09-20T17:28:38.155Z,0.90
2022-09-20T17:31:06.093Z,0.80
2022-09-20T17:33:34.266Z,0.90
2022-09-20T17:36:03.574Z,0.90
2022-09-20T17:38:33.469Z,0.80
2022-09-20T17:41:01.851Z,0.90
2022-09-20T17:43:31.012Z,0.93
2022-09-20T17:46:08.779Z,1.00
2022-09-20T17:48:36.552Z,1.10
2022-09-20T17:51:10.432Z,1.08
2022-09-20T17:53:39.625Z,1.50
2022-09-20T17:56:06.993Z,1.13
2022-09-20T17:58:34.694Z,1.10
2022-09-20T18:01:09.715Z,1.20
2022-09-20T18:03:40.683Z,1.02
2022-09-20T18:06:13.143Z,1.10
2022-09-20T18:08:40.706Z,1.10
2022-09-20T18:11:08.267Z,1.00
2022-09-20T18:13:36.715Z,1.10
2022-09-20T18:16:05.583Z,1.40
2022-09-20T18:18:33.017Z,1.20
2022-09-20T18:21:00.496Z,1.00
2022-09-20T18:23:30.119Z,1.20
2022-09-20T18:26:14.959Z,1.20
2022-09-20T18:28:45.864Z,1.20
2022-09-20T18:31:15.664Z,1.40
2022-09-20T18:33:43.229Z,1.30
2022-09-20T18:36:10.668Z,1.30
2022-09-20T18:38:41.099Z,1.40
2022-09-20T18:41:08.915Z,1.17
2022-09-20T18:43:36.871Z,1.38
2022-09-20T18:46:04.236Z,1.40
2022-09-20T18:48:33.484Z,1.65
2022-09-20T18:51:01.763Z,1.40
2022-09-20T18:53:29.618Z,1.50
2022-09-20T18:56:06.011Z,1.45
2022-09-20T18:58:33.519Z,1.50
2022-09-20T19:01:06.855Z,1.23
2022-09-20T19:03:47.196Z,1.70
2022-09-20T19:06:16.284Z,1.63
2022-09-20T19:08:48.133Z,1.80
2022-09-20T19:11:23.833Z,1.65
2022-09-20T19:13:55.318Z,1.50
2022-09-20T19:16:25.709Z,1.60
2022-09-20T19:19:11.876Z,2.08
2022-09-20T19:21:43.467Z,1.80
2022-09-20T19:24:16.287Z,1.60
2022-09-20T19:26:45.567Z,1.70
2022-09-20T19:29:17.980Z,1.70
2022-09-20T19:31:45.903Z,1.60
2022-09-20T19:34:16.638Z,1.73
2022-09-20T19:36:50.243Z,1.45
2022-09-20T19:39:23.601Z,1.70
2022-09-20T19:41:58.020Z,1.83
2022-09-20T19:44:33.254Z,1.38
2022-09-20T19:47:07.558Z,1.67
2022-09-20T19:49:48.310Z,1.70
2022-09-20T19:52:16.053Z,1.70
2022-09-20T19:54:46.887Z,2.10
2022-09-20T19:57:19.057Z,1.80
2022-09-20T19:59:46.925Z,1.80
2022-09-20T20:02:14.532Z,2.00
2022-09-20T20:04:43.200Z,2.10
2022-09-20T20:07:16.448Z,2.10
2022-09-20T20:09:46.614Z,1.65
2022-09-20T20:12:16.178Z,1.65
2022-09-20T20:14:50.349Z,1.90
2022-09-20T20:17:27.132Z,1.70
2022-09-20T20:20:00.892Z,1.67
2022-09-20T20:22:40.838Z,2.00
2022-09-20T20:25:15.921Z,1.85
2022-09-20T20:27:43.351Z,2.05
2022-09-20T20:30:12.712Z,2.03
2022-09-20T20:32:40.425Z,2.10
2022-09-20T20:35:08.414Z,2.38
2022-09-20T20:37:35.916Z,2.25
2022-09-20T20:40:03.344Z,2.35
2022-09-20T20:42:30.700Z,2.45
2022-09-20T20:44:58.672Z,2.23
2022-09-20T20:47:27.472Z,2.20
2022-09-20T20:49:55.029Z,2.70
2022-09-20T20:52:22.377Z,2.40
2022-09-20T20:54:49.751Z,1.90
2022-09-20T20:57:18.909Z,2.20
2022-09-20T20:59:46.419Z,1.65
2022-09-20T21:02:13.752Z,1.90
2022-09-20T21:04:42.445Z,1.70
2022-09-20T21:07:10.706Z,2.13
2022-09-20T21:09:39.615Z,1.97
2022-09-20T21:12:07.261Z,1.80
2022-09-20T21:14:34.787Z,1.92
2022-09-20T21:17:02.718Z,2.00
2022-09-20T21:19:30.069Z,1.80
2022-09-20T21:21:58.741Z,1.97
2022-09-20T21:24:26.105Z,1.92
2022-09-20T21:26:53.472Z,1.70
2022-09-20T21:29:20.865Z,2.00
2022-09-20T21:31:48.230Z,1.95
2022-09-20T21:34:16.501Z,1.80
2022-09-20T21:36:44.496Z,1.60
2022-09-20T21:39:13.669Z,1.90
2022-09-20T21:41:41.242Z,2.08
2022-09-20T21:44:09.690Z,1.75
2022-09-20T21:46:38.486Z,2.10
2022-09-20T21:49:06.575Z,2.00
2022-09-20T21:51:34.730Z,2.15
2022-09-20T21:54:02.610Z,1.88
2022-09-20T21:56:32.396Z,2.20
2022-09-20T21:59:02.051Z,2.10
2022-09-20T22:01:30.225Z,2.10
2022-09-20T22:04:00.108Z,2.05
2022-09-20T22:06:28.207Z,2.15
2022-09-20T22:08:56.563Z,2.00
2022-09-20T22:11:23.867Z,2.07
2022-09-20T22:13:53.372Z,2.17
2022-09-20T22:16:23.263Z,2.22
2022-09-20T22:18:50.812Z,2.17
2022-09-20T22:21:19.535Z,2.30
2022-09-20T22:23:49.762Z,2.00
2022-09-20T22:26:18.217Z,2.20
2022-09-20T22:28:45.774Z,1.90
2022-09-20T22:31:15.512Z,2.50
2022-09-20T22:33:43.895Z,1.90
2022-09-20T22:36:12.582Z,1.87
2022-09-20T22:38:40.142Z,2.00
2022-09-20T22:41:07.791Z,1.77
2022-09-20T22:43:35.940Z,1.73
2022-09-20T22:46:04.524Z,1.80
2022-09-20T22:48:34.065Z,1.90
2022-09-20T22:51:02.077Z,1.85
2022-09-20T22:53:30.313Z,2.00
2022-09-20T22:56:05.052Z,2.10
2022-09-20T22:58:33.587Z,1.88
2022-09-20T23:01:04.785Z,2.10
2022-09-20T23:03:33.780Z,1.95
2022-09-20T23:06:02.909Z,2.00
2022-09-20T23:08:31.989Z,1.92
2022-09-20T23:11:02.829Z,2.38
2022-09-20T23:13:30.430Z,2.07
2022-09-20T23:15:58.144Z,1.98
2022-09-20T23:18:25.875Z,2.08
2022-09-20T23:21:01.246Z,1.80
2022-09-20T23:23:29.070Z,2.05
2022-09-20T23:25:56.712Z,1.67
2022-09-20T23:28:27.023Z,1.73
2022-09-20T23:30:54.609Z,1.73
2022-09-20T23:33:22.180Z,1.85
2022-09-20T23:35:49.688Z,2.10
2022-09-20T23:38:18.581Z,1.90
2022-09-20T23:40:46.493Z,1.88
2022-09-20T23:43:14.080Z,1.80
2022-09-20T23:45:41.665Z,1.70
2022-09-20T23:48:09.265Z,2.00
2022-09-20T23:50:36.805Z,1.67
2022-09-20T23:53:04.340Z,1.58
2022-09-20T23:55:33.238Z,1.90
2022-09-20T23:58:00.774Z,1.92
